createdAt,value
2019-06-27T00:00:09.586Z,67.90
2019-06-27T00:02:38.322Z,67.90
2019-06-27T00:05:07.526Z,67.90
2019-06-27T00:07:36.299Z,67.80
2019-06-27T00:10:05.602Z,68.30
2019-06-27T00:12:34.424Z,68.30
2019-06-27T00:15:03.184Z,68.30
2019-06-27T00:17:31.923Z,68.30
2019-06-27T00:20:00.724Z,68.20
2019-06-27T00:22:29.501Z,67.90
2019-06-27T00:24:58.256Z,67.70
2019-06-27T00:27:27.008Z,67.70
2019-06-27T00:29:55.790Z,67.90
2019-06-27T00:32:24.542Z,67.80
2019-06-27T00:34:53.293Z,67.80
2019-06-27T00:37:22.038Z,67.90
2019-06-27T00:39:50.827Z,68.20
2019-06-27T00:42:19.609Z,68.20
2019-06-27T00:44:48.334Z,68.00
2019-06-27T00:47:17.098Z,68.00
2019-06-27T00:49:45.863Z,68.30
2019-06-27T00:52:14.598Z,68.60
2019-06-27T00:54:43.376Z,68.40
2019-06-27T00:57:14.507Z,68.40
2019-06-27T00:59:42.580Z,68.20
2019-06-27T01:02:11.349Z,67.90
2019-06-27T01:04:40.111Z,67.80
2019-06-27T01:07:08.871Z,67.40
2019-06-27T01:09:37.651Z,67.30
2019-06-27T01:12:06.431Z,67.20
2019-06-27T01:14:35.188Z,67.50
2019-06-27T01:17:03.947Z,67.60
2019-06-27T01:19:32.674Z,67.50
2019-06-27T01:22:01.432Z,67.60
2019-06-27T01:24:30.228Z,68.10
2019-06-27T01:26:59.000Z,68.20
2019-06-27T01:29:27.747Z,68.10
2019-06-27T01:31:56.504Z,68.00
2019-06-27T01:34:25.336Z,68.00
2019-06-27T01:36:54.073Z,68.40
2019-06-27T01:39:23.108Z,68.50
2019-06-27T01:41:51.849Z,69.10
2019-06-27T01:44:40.793Z,68.40
2019-06-27T01:47:09.555Z,68.20
2019-06-27T01:49:38.313Z,67.90
2019-06-27T01:52:07.095Z,67.70
2019-06-27T01:54:35.909Z,67.70
2019-06-27T01:57:04.702Z,67.90
2019-06-27T01:59:33.467Z,67.80
2019-06-27T02:02:03.148Z,67.80
2019-06-27T02:04:31.990Z,67.70
2019-06-27T02:07:00.750Z,68.20
2019-06-27T02:09:33.212Z,68.20
2019-06-27T02:12:00.003Z,68.00
2019-06-27T02:14:28.741Z,68.00
2019-06-27T02:16:57.507Z,68.00
2019-06-27T02:19:26.266Z,68.50
2019-06-27T02:21:54.986Z,68.40
2019-06-27T02:24:23.785Z,68.30
2019-06-27T02:26:52.573Z,68.30
2019-06-27T02:29:21.319Z,68.80
2019-06-27T02:31:50.152Z,67.80
2019-06-27T02:34:18.876Z,67.60
2019-06-27T02:36:47.661Z,67.50
2019-06-27T02:39:16.494Z,67.50
2019-06-27T02:41:45.219Z,68.10
2019-06-27T02:44:14.005Z,67.90
2019-06-27T02:46:42.868Z,67.90
2019-06-27T02:49:11.630Z,67.90
2019-06-27T02:51:40.391Z,68.10
2019-06-27T02:54:09.249Z,68.40
2019-06-27T02:56:38.008Z,68.30
2019-06-27T02:59:06.747Z,68.30
2019-06-27T03:01:35.478Z,68.20
2019-06-27T03:04:04.222Z,67.90
2019-06-27T03:06:32.984Z,67.80
2019-06-27T03:09:01.844Z,67.50
2019-06-27T03:11:30.679Z,67.50
2019-06-27T03:13:59.430Z,67.70
2019-06-27T03:16:28.176Z,68.00
2019-06-27T03:18:57.000Z,67.90
2019-06-27T03:21:25.752Z,67.90
2019-06-27T03:23:54.533Z,67.80
2019-06-27T03:26:23.272Z,68.10
2019-06-27T03:28:54.100Z,69.10
2019-06-27T03:31:22.496Z,68.20
2019-06-27T03:33:51.404Z,68.20
2019-06-27T03:36:20.352Z,68.10
2019-06-27T03:38:49.093Z,68.40
2019-06-27T03:41:17.853Z,68.70
2019-06-27T03:43:46.597Z,68.50
2019-06-27T03:46:15.437Z,68.60
2019-06-27T03:48:44.179Z,68.40
2019-06-27T03:51:12.950Z,68.20
2019-06-27T03:53:41.768Z,67.80
2019-06-27T03:56:10.484Z,67.70
2019-06-27T03:58:39.256Z,67.60
2019-06-27T04:01:08.000Z,67.60
2019-06-27T04:03:36.834Z,68.00
2019-06-27T04:06:05.559Z,68.00
2019-06-27T04:08:34.368Z,67.90
2019-06-27T04:11:03.109Z,67.90
2019-06-27T04:13:31.870Z,68.30
2019-06-27T04:16:00.718Z,68.40
2019-06-27T04:18:29.472Z,68.30
2019-06-27T04:20:58.310Z,68.20
2019-06-27T04:23:27.053Z,68.10
2019-06-27T04:25:55.984Z,68.30
2019-06-27T04:28:24.732Z,68.60
2019-06-27T04:30:53.555Z,68.40
2019-06-27T04:33:22.526Z,68.50
2019-06-27T04:35:51.324Z,68.20
2019-06-27T04:38:20.089Z,67.90
2019-06-27T04:40:48.843Z,67.80
2019-06-27T04:43:17.587Z,67.50
2019-06-27T04:45:46.334Z,67.30
2019-06-27T04:48:15.099Z,67.40
2019-06-27T04:50:43.859Z,67.60
2019-06-27T04:53:12.620Z,67.80
2019-06-27T04:55:41.373Z,68.10
2019-06-27T04:58:10.123Z,67.80
2019-06-27T05:00:38.937Z,68.10
2019-06-27T05:03:07.791Z,68.30
2019-06-27T05:05:36.626Z,68.20
2019-06-27T05:08:05.407Z,68.20
2019-06-27T05:10:34.231Z,68.20
2019-06-27T05:13:02.976Z,68.50
2019-06-27T05:15:31.727Z,68.70
2019-06-27T05:18:00.553Z,68.50
2019-06-27T05:20:29.311Z,68.60
2019-06-27T05:22:58.057Z,68.40
2019-06-27T05:25:29.555Z,68.10
2019-06-27T05:27:57.360Z,67.90
2019-06-27T05:30:26.208Z,67.80
2019-06-27T05:32:55.012Z,67.50
2019-06-27T05:35:23.759Z,67.50
2019-06-27T05:37:52.503Z,68.00
2019-06-27T05:40:21.433Z,67.90
2019-06-27T05:42:50.195Z,68.00
2019-06-27T05:45:18.932Z,67.80
2019-06-27T05:47:47.676Z,68.20
2019-06-27T05:50:16.420Z,68.40
2019-06-27T05:52:45.173Z,68.40
2019-06-27T05:55:14.007Z,68.20
2019-06-27T05:57:42.745Z,69.00
2019-06-27T06:00:26.549Z,68.40
2019-06-27T06:02:42.000Z,69.50
2019-06-27T06:05:10.859Z,68.60
2019-06-27T06:07:40.439Z,68.70
2019-06-27T06:10:09.212Z,68.60
2019-06-27T06:12:38.172Z,68.30
2019-06-27T06:15:06.995Z,68.00
2019-06-27T06:17:35.817Z,67.80
2019-06-27T06:20:04.859Z,67.60
2019-06-27T06:22:33.620Z,67.60
2019-06-27T06:25:02.482Z,67.90
2019-06-27T06:27:31.392Z,68.00
2019-06-27T06:30:00.294Z,68.00
2019-06-27T06:32:29.186Z,67.90
2019-06-27T06:34:58.051Z,68.20
2019-06-27T06:37:26.879Z,68.50
2019-06-27T06:39:55.799Z,68.40
2019-06-27T06:42:24.633Z,68.40
2019-06-27T06:44:53.462Z,68.30
2019-06-27T06:47:22.422Z,68.60
2019-06-27T06:49:51.457Z,68.70
2019-06-27T06:52:20.247Z,68.70
2019-06-27T06:54:49.052Z,68.70
2019-06-27T06:57:17.818Z,68.50
2019-06-27T06:59:46.692Z,68.20
2019-06-27T07:02:15.578Z,67.90
2019-06-27T07:04:44.358Z,67.80
2019-06-27T07:07:13.376Z,67.70
2019-06-27T07:09:42.377Z,67.70
2019-06-27T07:12:11.194Z,67.90
2019-06-27T07:14:39.982Z,68.20
2019-06-27T07:17:08.742Z,68.20
2019-06-27T07:19:38.050Z,68.20
2019-06-27T07:22:06.892Z,68.30
2019-06-27T07:24:35.656Z,68.50
2019-06-27T07:27:04.516Z,68.60
2019-06-27T07:29:33.264Z,68.60
2019-06-27T07:32:02.038Z,68.50
2019-06-27T07:34:30.795Z,68.70
2019-06-27T07:36:59.652Z,68.90
2019-06-27T07:39:28.408Z,68.80
2019-06-27T07:41:57.153Z,68.90
2019-06-27T07:44:25.904Z,68.70
2019-06-27T07:46:54.779Z,68.40
2019-06-27T07:49:23.538Z,68.20
2019-06-27T07:51:52.364Z,67.90
2019-06-27T07:54:21.198Z,67.90
2019-06-27T07:56:50.039Z,67.90
2019-06-27T07:59:18.816Z,68.10
2019-06-27T08:01:47.658Z,68.20
2019-06-27T08:04:16.534Z,68.30
2019-06-27T08:06:45.593Z,68.20
2019-06-27T08:09:14.592Z,68.30
2019-06-27T08:11:43.431Z,68.60
2019-06-27T08:14:12.190Z,68.60
2019-06-27T08:16:40.963Z,68.60
2019-06-27T08:19:09.902Z,68.50
2019-06-27T08:21:38.666Z,68.60
2019-06-27T08:24:07.458Z,68.70
2019-06-27T08:26:36.211Z,68.70
2019-06-27T08:29:05.061Z,68.90
2019-06-27T08:31:42.003Z,68.80
2019-06-27T08:34:04.313Z,68.50
2019-06-27T08:36:33.222Z,68.20
2019-06-27T08:39:02.078Z,68.00
2019-06-27T08:41:30.855Z,67.90
2019-06-27T08:43:59.591Z,67.90
2019-06-27T08:46:29.934Z,68.20
2019-06-27T08:48:58.929Z,68.30
2019-06-27T08:51:27.688Z,68.30
2019-06-27T08:53:56.497Z,68.30
2019-06-27T08:56:25.286Z,68.40
2019-06-27T08:58:54.078Z,68.60
2019-06-27T09:01:22.848Z,68.60
2019-06-27T09:03:51.684Z,68.70
2019-06-27T09:06:21.274Z,68.70
2019-06-27T09:08:50.366Z,68.30
2019-06-27T09:11:19.315Z,68.20
2019-06-27T09:13:48.062Z,68.20
2019-06-27T09:16:16.960Z,68.30
2019-06-27T09:18:45.711Z,68.30
2019-06-27T09:21:14.461Z,68.20
2019-06-27T09:23:43.310Z,68.20
2019-06-27T09:26:12.065Z,68.20
2019-06-27T09:28:40.874Z,68.40
2019-06-27T09:31:09.671Z,68.40
2019-06-27T09:33:38.435Z,68.40
2019-06-27T09:36:07.263Z,69.20
2019-06-27T09:38:36.084Z,68.60
2019-06-27T09:41:04.899Z,68.70
2019-06-27T09:43:33.665Z,68.90
2019-06-27T09:46:02.406Z,68.80
2019-06-27T09:48:31.287Z,68.80
2019-06-27T09:51:00.034Z,68.30
2019-06-27T09:53:28.783Z,68.10
2019-06-27T09:55:57.607Z,68.00
2019-06-27T09:58:26.455Z,68.00
2019-06-27T10:00:55.346Z,68.20
2019-06-27T10:03:24.128Z,68.40
2019-06-27T10:05:52.946Z,68.40
2019-06-27T10:08:21.703Z,68.30
2019-06-27T10:10:50.522Z,68.30
2019-06-27T10:13:19.280Z,68.50
2019-06-27T10:15:48.011Z,68.40
2019-06-27T10:18:16.899Z,68.20
2019-06-27T10:20:45.656Z,68.40
2019-06-27T10:23:14.451Z,68.50
2019-06-27T10:25:43.348Z,68.50
2019-06-27T10:28:12.350Z,68.70
2019-06-27T10:30:41.211Z,68.80
2019-06-27T10:33:09.975Z,68.60
2019-06-27T10:35:38.722Z,68.50
2019-06-27T10:38:07.522Z,68.30
2019-06-27T10:40:36.395Z,68.00
2019-06-27T10:43:05.299Z,68.00
2019-06-27T10:45:34.326Z,68.10
2019-06-27T10:48:03.082Z,68.00
2019-06-27T10:50:31.823Z,68.20
2019-06-27T10:53:00.710Z,67.90
2019-06-27T10:55:29.554Z,68.30
2019-06-27T10:57:58.308Z,68.40
2019-06-27T11:00:27.149Z,68.60
2019-06-27T11:02:55.915Z,68.50
2019-06-27T11:05:24.837Z,68.50
2019-06-27T11:07:53.708Z,68.70
2019-06-27T11:10:22.522Z,68.50
2019-06-27T11:12:51.308Z,68.20
2019-06-27T11:15:20.169Z,68.20
2019-06-27T11:17:48.904Z,68.10
2019-06-27T11:20:17.779Z,68.40
2019-06-27T11:22:46.587Z,68.40
2019-06-27T11:25:15.454Z,68.40
2019-06-27T11:27:44.209Z,68.70
2019-06-27T11:30:13.030Z,68.80
2019-06-27T11:32:41.871Z,68.60
2019-06-27T11:35:10.665Z,68.70
2019-06-27T11:37:39.549Z,68.70
2019-06-27T11:40:11.789Z,68.70
2019-06-27T11:42:39.067Z,68.40
2019-06-27T11:45:07.864Z,68.60
2019-06-27T11:47:36.652Z,68.70
2019-06-27T11:50:05.960Z,68.70
2019-06-27T11:52:34.788Z,68.50
2019-06-27T11:55:03.700Z,68.10
2019-06-27T11:57:32.539Z,67.90
2019-06-27T12:00:01.508Z,67.90
2019-06-27T12:02:30.553Z,68.80
2019-06-27T12:04:59.495Z,67.90
2019-06-27T12:07:28.365Z,68.30
2019-06-27T12:09:57.149Z,68.40
2019-06-27T12:12:26.020Z,68.30
2019-06-27T12:14:54.796Z,68.50
2019-06-27T12:17:23.580Z,68.60
2019-06-27T12:19:52.422Z,68.30
2019-06-27T12:22:21.328Z,68.50
2019-06-27T12:24:50.210Z,69.40
2019-06-27T12:27:18.983Z,68.70
2019-06-27T12:29:47.788Z,68.70
2019-06-27T12:32:16.682Z,67.60
2019-06-27T12:34:45.556Z,68.40
2019-06-27T12:37:14.395Z,68.60
2019-06-27T12:39:43.181Z,68.30
2019-06-27T12:42:11.981Z,67.50
2019-06-27T12:44:40.745Z,67.90
2019-06-27T12:47:09.498Z,68.00
2019-06-27T12:49:56.888Z,68.50
2019-06-27T12:52:08.804Z,68.20
2019-06-27T12:54:37.674Z,68.20
2019-06-27T12:57:06.554Z,68.50
2019-06-27T12:59:35.396Z,68.70
2019-06-27T13:02:04.174Z,68.80
2019-06-27T13:04:33.062Z,69.20
2019-06-27T13:07:01.838Z,68.50
2019-06-27T13:09:30.665Z,68.80
2019-06-27T13:11:59.558Z,69.10
2019-06-27T13:14:28.364Z,68.40
2019-06-27T13:16:57.270Z,68.50
2019-06-27T13:19:26.012Z,68.50
2019-06-27T13:21:55.027Z,68.50
2019-06-27T13:24:23.975Z,68.60
2019-06-27T13:26:52.812Z,68.50
2019-06-27T13:29:21.566Z,68.50
2019-06-27T13:31:50.463Z,68.30
2019-06-27T13:34:19.406Z,68.70
2019-06-27T13:36:48.237Z,68.70
2019-06-27T13:39:17.164Z,68.60
2019-06-27T13:41:46.114Z,68.50
2019-06-27T13:44:15.013Z,68.60
2019-06-27T13:46:43.784Z,68.50
2019-06-27T13:49:12.748Z,68.60
2019-06-27T13:51:41.527Z,68.60
2019-06-27T13:54:10.478Z,68.80
2019-06-27T13:56:39.335Z,68.80
2019-06-27T13:59:08.207Z,68.70
2019-06-27T14:01:37.164Z,68.70
2019-06-27T14:04:06.214Z,68.80
2019-06-27T14:06:35.044Z,69.00
2019-06-27T14:09:04.692Z,69.10
2019-06-27T14:11:33.641Z,69.10
2019-06-27T14:14:02.725Z,69.10
2019-06-27T14:16:31.490Z,69.00
2019-06-27T14:19:00.322Z,68.80
2019-06-27T14:21:29.156Z,68.40
2019-06-27T14:23:57.966Z,68.20
2019-06-27T14:26:26.786Z,68.20
2019-06-27T14:28:55.588Z,68.40
2019-06-27T14:31:24.416Z,68.50
2019-06-27T14:33:53.336Z,68.80
2019-06-27T14:36:22.180Z,68.90
2019-06-27T14:38:50.951Z,69.00
2019-06-27T14:41:19.730Z,69.00
2019-06-27T14:43:48.632Z,69.00
2019-06-27T14:46:17.448Z,68.90
2019-06-27T14:48:46.328Z,69.00
2019-06-27T14:51:15.189Z,68.90
2019-06-27T14:53:44.222Z,68.50
2019-06-27T14:56:13.060Z,68.00
2019-06-27T14:58:41.820Z,67.30
2019-06-27T15:01:10.574Z,66.70
2019-06-27T15:03:39.444Z,66.40
2019-06-27T15:06:12.096Z,66.90
2019-06-27T15:08:38.691Z,65.90
2019-06-27T15:11:07.434Z,65.70
2019-06-27T15:13:36.278Z,65.50
2019-06-27T15:16:11.730Z,65.50
2019-06-27T15:18:35.631Z,65.70
2019-06-27T15:21:04.425Z,65.80
2019-06-27T15:23:33.206Z,65.80
2019-06-27T15:26:02.047Z,66.10
2019-06-27T15:28:34.106Z,66.40
2019-06-27T15:31:01.260Z,66.40
2019-06-27T15:33:30.136Z,66.90
2019-06-27T15:35:58.892Z,67.00
2019-06-27T15:38:27.660Z,67.10
2019-06-27T15:40:56.497Z,67.60
2019-06-27T15:43:25.329Z,67.80
2019-06-27T15:45:54.110Z,67.40
2019-06-27T15:48:22.876Z,68.10
2019-06-27T15:50:51.825Z,68.20
2019-06-27T15:53:20.610Z,68.20
2019-06-27T15:55:49.342Z,67.80
2019-06-27T15:58:18.111Z,67.50
2019-06-27T16:00:46.978Z,66.60
2019-06-27T16:03:15.731Z,66.90
2019-06-27T16:05:44.507Z,67.30
2019-06-27T16:08:13.368Z,67.70
2019-06-27T16:10:42.170Z,68.00
2019-06-27T16:13:10.944Z,68.10
2019-06-27T16:15:39.694Z,68.10
2019-06-27T16:18:08.484Z,68.40
2019-06-27T16:20:37.419Z,68.50
2019-06-27T16:23:06.179Z,68.50
2019-06-27T16:25:34.943Z,68.80
2019-06-27T16:28:03.714Z,68.90
2019-06-27T16:30:32.618Z,69.10
2019-06-27T16:33:01.498Z,69.10
2019-06-27T16:35:30.286Z,68.80
2019-06-27T16:37:59.105Z,68.40
2019-06-27T16:40:27.861Z,67.90
2019-06-27T16:42:56.640Z,67.50
2019-06-27T16:45:25.378Z,67.20
2019-06-27T16:47:54.152Z,66.90
2019-06-27T16:50:22.926Z,66.80
2019-06-27T16:52:51.747Z,66.80
2019-06-27T16:55:20.514Z,66.80
2019-06-27T16:57:49.283Z,66.80
2019-06-27T17:00:18.546Z,66.60
2019-06-27T17:02:47.402Z,67.30
2019-06-27T17:05:16.159Z,67.50
2019-06-27T17:07:44.943Z,66.60
2019-06-27T17:10:13.699Z,66.40
2019-06-27T17:12:42.437Z,66.50
2019-06-27T17:15:11.208Z,67.10
2019-06-27T17:17:40.045Z,66.50
2019-06-27T17:20:08.809Z,66.00
2019-06-27T17:22:37.590Z,65.60
2019-06-27T17:25:07.122Z,65.50
2019-06-27T17:27:35.985Z,65.30
2019-06-27T17:30:05.578Z,65.00
2019-06-27T17:32:34.321Z,65.20
2019-06-27T17:35:03.110Z,64.70
2019-06-27T17:37:31.887Z,64.80
2019-06-27T17:40:00.679Z,64.80
2019-06-27T17:42:29.420Z,64.00
2019-06-27T17:44:58.214Z,64.00
2019-06-27T17:47:27.043Z,63.80
2019-06-27T17:49:55.821Z,64.60
2019-06-27T17:52:24.590Z,64.30
2019-06-27T17:54:53.348Z,64.40
2019-06-27T17:57:22.559Z,64.10
2019-06-27T17:59:51.351Z,63.90
2019-06-27T18:02:20.106Z,64.40
2019-06-27T18:04:48.950Z,64.30
2019-06-27T18:07:17.714Z,64.20
2019-06-27T18:09:46.503Z,64.40
2019-06-27T18:12:15.273Z,64.80
2019-06-27T18:14:44.040Z,64.80
2019-06-27T18:17:12.865Z,64.90
2019-06-27T18:19:42.503Z,64.40
2019-06-27T18:22:11.382Z,64.50
2019-06-27T18:24:41.763Z,64.10
2019-06-27T18:27:10.672Z,65.30
2019-06-27T18:29:39.437Z,64.70
2019-06-27T18:32:08.179Z,64.10
2019-06-27T18:34:36.934Z,64.20
2019-06-27T18:37:05.704Z,64.30
2019-06-27T18:39:34.452Z,64.30
2019-06-27T18:42:03.399Z,64.60
2019-06-27T18:44:32.235Z,64.50
2019-06-27T18:47:01.013Z,64.50
2019-06-27T18:49:30.245Z,64.90
2019-06-27T18:51:59.093Z,64.80
2019-06-27T18:54:27.939Z,64.90
2019-06-27T18:56:56.683Z,64.80
2019-06-27T18:59:25.452Z,64.90
2019-06-27T19:01:54.411Z,64.60
2019-06-27T19:04:23.161Z,64.80
2019-06-27T19:06:51.933Z,65.00
2019-06-27T19:09:20.698Z,65.10
2019-06-27T19:11:49.453Z,65.10
2019-06-27T19:14:18.313Z,64.90
2019-06-27T19:16:47.070Z,64.90
2019-06-27T19:19:18.420Z,65.10
2019-06-27T19:22:24.442Z,64.50
2019-06-27T19:25:04.407Z,64.30
2019-06-27T19:27:33.238Z,64.20
2019-06-27T19:30:02.018Z,64.50
2019-06-27T19:32:30.760Z,64.50
2019-06-27T19:34:59.544Z,64.60
2019-06-27T19:37:28.456Z,64.90
2019-06-27T19:39:57.220Z,64.90
2019-06-27T19:42:25.951Z,64.80
2019-06-27T19:44:54.726Z,64.90
2019-06-27T19:47:23.508Z,64.90
2019-06-27T19:49:52.331Z,65.10
2019-06-27T19:52:21.073Z,65.20
2019-06-27T19:54:49.983Z,64.80
2019-06-27T19:57:18.904Z,65.00
2019-06-27T19:59:47.648Z,64.90
2019-06-27T20:02:16.423Z,65.20
2019-06-27T20:04:45.289Z,65.10
2019-06-27T20:07:14.138Z,65.00
2019-06-27T20:09:42.896Z,64.30
2019-06-27T20:12:11.688Z,64.10
2019-06-27T20:14:40.442Z,64.10
2019-06-27T20:17:09.248Z,64.30
2019-06-27T20:19:38.006Z,64.70
2019-06-27T20:22:06.862Z,64.60
2019-06-27T20:24:35.647Z,64.60
2019-06-27T20:27:04.566Z,64.80
2019-06-27T20:29:33.326Z,64.80
2019-06-27T20:32:02.084Z,65.20
2019-06-27T20:34:30.971Z,65.00
2019-06-27T20:36:59.802Z,65.10
2019-06-27T20:39:28.547Z,65.10
2019-06-27T20:41:57.321Z,65.20
2019-06-27T20:44:26.076Z,65.20
2019-06-27T20:46:55.110Z,65.40
2019-06-27T20:49:23.942Z,62.70
2019-06-27T20:51:52.810Z,59.70
2019-06-27T20:54:21.581Z,59.40
2019-06-27T20:56:50.576Z,59.10
2019-06-27T20:59:19.320Z,60.00
2019-06-27T21:01:48.065Z,61.20
2019-06-27T21:04:16.849Z,62.30
2019-06-27T21:06:45.588Z,63.30
2019-06-27T21:09:14.331Z,62.90
2019-06-27T21:11:43.071Z,63.40
2019-06-27T21:14:11.818Z,63.60
2019-06-27T21:16:40.592Z,64.50
2019-06-27T21:19:09.376Z,64.30
2019-06-27T21:21:38.139Z,64.10
2019-06-27T21:24:06.928Z,64.20
2019-06-27T21:26:36.063Z,64.20
2019-06-27T21:29:04.826Z,64.30
2019-06-27T21:31:33.584Z,64.40
2019-06-27T21:34:02.394Z,64.90
2019-06-27T21:36:31.169Z,64.60
2019-06-27T21:39:07.442Z,63.70
2019-06-27T21:41:30.548Z,63.40
2019-06-27T21:43:59.302Z,63.20
2019-06-27T21:46:28.298Z,63.00
2019-06-27T21:48:57.203Z,63.00
2019-06-27T21:51:25.991Z,63.60
2019-06-27T21:53:54.757Z,63.90
2019-06-27T21:56:23.524Z,63.50
2019-06-27T21:58:52.254Z,63.70
2019-06-27T22:01:21.049Z,64.00
2019-06-27T22:03:49.819Z,64.20
2019-06-27T22:06:18.660Z,64.40
2019-06-27T22:08:47.428Z,64.00
2019-06-27T22:11:16.270Z,64.20
2019-06-27T22:13:45.185Z,64.40
2019-06-27T22:16:13.963Z,64.50
2019-06-27T22:18:42.713Z,64.80
2019-06-27T22:21:11.552Z,64.80
2019-06-27T22:23:40.396Z,64.70
2019-06-27T22:26:09.148Z,64.00
2019-06-27T22:28:37.922Z,63.90
2019-06-27T22:31:06.679Z,63.40
2019-06-27T22:33:35.479Z,63.40
2019-06-27T22:36:04.316Z,63.70
2019-06-27T22:38:51.022Z,64.00
2019-06-27T22:41:37.800Z,64.10
2019-06-27T22:44:24.576Z,63.80
2019-06-27T22:47:11.362Z,64.10
2019-06-27T22:49:39.328Z,65.00
2019-06-27T22:52:27.192Z,64.60
2019-06-27T22:54:57.604Z,64.30
2019-06-27T22:57:26.408Z,64.40
2019-06-27T22:59:55.244Z,64.50
2019-06-27T23:02:24.000Z,64.70
2019-06-27T23:04:52.750Z,65.10
2019-06-27T23:07:21.509Z,64.70
2019-06-27T23:09:56.894Z,64.20
2019-06-27T23:12:20.946Z,63.90
2019-06-27T23:14:49.805Z,63.60
2019-06-27T23:17:18.716Z,63.40
2019-06-27T23:19:47.545Z,63.50
2019-06-27T23:22:16.358Z,64.00
2019-06-27T23:24:45.168Z,64.10
2019-06-27T23:27:13.995Z,64.20
2019-06-27T23:29:42.855Z,64.10
2019-06-27T23:32:11.731Z,64.50
2019-06-27T23:34:40.583Z,64.60
2019-06-27T23:37:09.430Z,64.70
2019-06-27T23:39:38.223Z,64.90
2019-06-27T23:42:07.021Z,64.70
2019-06-27T23:44:35.823Z,64.80
2019-06-27T23:47:04.558Z,65.00
2019-06-27T23:49:33.343Z,65.10
2019-06-27T23:52:02.132Z,65.30
2019-06-27T23:54:31.034Z,65.10
2019-06-27T23:56:59.805Z,64.50
2019-06-27T23:59:28.636Z,64.30
